sensor_id;sensor_type;location;lat;lon;timestamp;temperature;humidity
33903;DHT22;20194;50.950;5.346;2024-01-15T00:00:13;2.20;98.90
33903;DHT22;20194;50.950;5.346;2024-01-15T00:02:39;2.20;99.30
33903;DHT22;20194;50.950;5.346;2024-01-15T00:05:05;2.20;99.20
33903;DHT22;20194;50.950;5.346;2024-01-15T00:07:30;2.20;99.10
33903;DHT22;20194;50.950;5.346;2024-01-15T00:09:56;2.10;99.50
33903;DHT22;20194;50.950;5.346;2024-01-15T00:12:22;2.10;99.90
33903;DHT22;20194;50.950;5.346;2024-01-15T00:14:48;2.00;99.90
33903;DHT22;20194;50.950;5.346;2024-01-15T00:17:14;2.00;99.90
33903;DHT22;20194;50.950;5.346;2024-01-15T00:19:40;2.00;99.90
33903;DHT22;20194;50.950;5.346;2024-01-15T00:22:05;2.00;99.90
33903;DHT22;20194;50.950;5.346;2024-01-15T00:24:31;2.10;99.90
33903;DHT22;20194;50.950;5.346;2024-01-15T00:26:57;2.10;99.90
33903;DHT22;20194;50.950;5.346;2024-01-15T00:29:23;2.10;99.90
33903;DHT22;20194;50.950;5.346;2024-01-15T00:31:48;2.00;99.90
33903;DHT22;20194;50.950;5.346;2024-01-15T00:34:14;1.90;99.90
33903;DHT22;20194;50.950;5.346;2024-01-15T00:36:39;1.90;99.90
33903;DHT22;20194;50.950;5.346;2024-01-15T00:39:05;1.90;99.90
33903;DHT22;20194;50.950;5.346;2024-01-15T00:41:31;1.90;99.90
33903;DHT22;20194;50.950;5.346;2024-01-15T00:43:57;1.80;99.90
33903;DHT22;20194;50.950;5.346;2024-01-15T00:46:23;1.80;99.90
33903;DHT22;20194;50.950;5.346;2024-01-15T00:48:49;1.80;99.90
33903;DHT22;20194;50.950;5.346;2024-01-15T00:51:14;1.80;99.90
33903;DHT22;20194;50.950;5.346;2024-01-15T00:53:41;1.90;99.90
33903;DHT22;20194;50.950;5.346;2024-01-15T00:56:06;1.90;99.90
33903;DHT22;20194;50.950;5.346;2024-01-15T00:58:32;1.80;99.90
33903;DHT22;20194;50.950;5.346;2024-01-15T01:00:57;1.80;99.90
33903;DHT22;20194;50.950;5.346;2024-01-15T01:03:23;1.80;99.90
33903;DHT22;20194;50.950;5.346;2024-01-15T01:05:49;1.80;99.90
33903;DHT22;20194;50.950;5.346;2024-01-15T01:08:18;1.70;99.90
33903;DHT22;20194;50.950;5.346;2024-01-15T01:10:43;1.80;99.90
33903;DHT22;20194;50.950;5.346;2024-01-15T01:13:09;1.90;99.90
33903;DHT22;20194;50.950;5.346;2024-01-15T01:15:35;1.90;99.90
33903;DHT22;20194;50.950;5.346;2024-01-15T01:18:01;1.80;99.90
33903;DHT22;20194;50.950;5.346;2024-01-15T01:20:27;1.90;99.90
33903;DHT22;20194;50.950;5.346;2024-01-15T01:22:52;1.90;99.90
33903;DHT22;20194;50.950;5.346;2024-01-15T01:25:18;1.90;99.90
33903;DHT22;20194;50.950;5.346;2024-01-15T01:27:44;1.90;99.90
33903;DHT22;20194;50.950;5.346;2024-01-15T01:30:10;1.90;99.90
33903;DHT22;20194;50.950;5.346;2024-01-15T01:32:36;1.90;99.90
33903;DHT22;20194;50.950;5.346;2024-01-15T01:35:02;2.00;99.90
33903;DHT22;20194;50.950;5.346;2024-01-15T01:37:28;2.00;99.90
33903;DHT22;20194;50.950;5.346;2024-01-15T01:39:53;2.10;99.90
33903;DHT22;20194;50.950;5.346;2024-01-15T01:42:19;2.10;99.90
33903;DHT22;20194;50.950;5.346;2024-01-15T01:44:45;2.00;99.90
33903;DHT22;20194;50.950;5.346;2024-01-15T01:47:10;2.00;99.90
33903;DHT22;20194;50.950;5.346;2024-01-15T01:49:37;2.00;99.90
33903;DHT22;20194;50.950;5.346;2024-01-15T01:52:05;2.00;99.90
33903;DHT22;20194;50.950;5.346;2024-01-15T01:54:33;2.10;99.90
33903;DHT22;20194;50.950;5.346;2024-01-15T01:56:59;2.10;99.90
33903;DHT22;20194;50.950;5.346;2024-01-15T01:59:28;2.20;99.90
33903;DHT22;20194;50.950;5.346;2024-01-15T02:01:58;2.10;99.90
33903;DHT22;20194;50.950;5.346;2024-01-15T02:04:26;2.30;99.90
33903;DHT22;20194;50.950;5.346;2024-01-15T02:06:52;2.40;99.90
33903;DHT22;20194;50.950;5.346;2024-01-15T02:09:18;2.40;99.90
33903;DHT22;20194;50.950;5.346;2024-01-15T02:11:46;2.30;99.90
33903;DHT22;20194;50.950;5.346;2024-01-15T02:14:13;2.40;99.90
33903;DHT22;20194;50.950;5.346;2024-01-15T02:16:38;2.30;99.90
33903;DHT22;20194;50.950;5.346;2024-01-15T02:19:04;2.20;99.90
33903;DHT22;20194;50.950;5.346;2024-01-15T02:21:31;2.20;99.90
33903;DHT22;20194;50.950;5.346;2024-01-15T02:23:57;2.20;99.90
33903;DHT22;20194;50.950;5.346;2024-01-15T02:26:23;2.10;99.90
33903;DHT22;20194;50.950;5.346;2024-01-15T02:28:50;2.20;99.90
33903;DHT22;20194;50.950;5.346;2024-01-15T02:31:16;2.30;99.90
33903;DHT22;20194;50.950;5.346;2024-01-15T02:33:43;2.20;99.90
33903;DHT22;20194;50.950;5.346;2024-01-15T02:36:10;2.30;99.90
33903;DHT22;20194;50.950;5.346;2024-01-15T02:38:36;2.40;99.90
33903;DHT22;20194;50.950;5.346;2024-01-15T02:41:02;2.30;99.90
33903;DHT22;20194;50.950;5.346;2024-01-15T02:43:28;2.30;99.90
33903;DHT22;20194;50.950;5.346;2024-01-15T02:45:53;2.20;99.90
33903;DHT22;20194;50.950;5.346;2024-01-15T02:48:19;2.30;99.90
33903;DHT22;20194;50.950;5.346;2024-01-15T02:50:45;2.30;99.90
33903;DHT22;20194;50.950;5.346;2024-01-15T02:53:11;2.30;99.90
33903;DHT22;20194;50.950;5.346;2024-01-15T02:55:37;2.30;99.90
33903;DHT22;20194;50.950;5.346;2024-01-15T02:58:03;2.40;99.90
33903;DHT22;20194;50.950;5.346;2024-01-15T03:00:29;2.40;99.90
33903;DHT22;20194;50.950;5.346;2024-01-15T03:02:55;2.40;99.90
33903;DHT22;20194;50.950;5.346;2024-01-15T03:05:20;2.40;99.90
33903;DHT22;20194;50.950;5.346;2024-01-15T03:07:46;2.50;99.90
33903;DHT22;20194;50.950;5.346;2024-01-15T03:10:12;2.50;99.90
33903;DHT22;20194;50.950;5.346;2024-01-15T03:12:37;2.50;99.90
33903;DHT22;20194;50.950;5.346;2024-01-15T03:15:03;2.50;99.90
33903;DHT22;20194;50.950;5.346;2024-01-15T03:17:29;2.40;99.90
33903;DHT22;20194;50.950;5.346;2024-01-15T03:19:55;2.50;99.90
33903;DHT22;20194;50.950;5.346;2024-01-15T03:22:21;2.50;99.90
33903;DHT22;20194;50.950;5.346;2024-01-15T03:24:46;2.60;99.90
33903;DHT22;20194;50.950;5.346;2024-01-15T03:27:12;2.60;99.90
33903;DHT22;20194;50.950;5.346;2024-01-15T03:29:39;2.60;99.90
33903;DHT22;20194;50.950;5.346;2024-01-15T03:32:04;2.60;99.90
33903;DHT22;20194;50.950;5.346;2024-01-15T03:34:31;2.80;99.90
33903;DHT22;20194;50.950;5.346;2024-01-15T03:36:56;2.90;99.90
33903;DHT22;20194;50.950;5.346;2024-01-15T03:39:22;2.80;99.90
33903;DHT22;20194;50.950;5.346;2024-01-15T03:41:47;2.80;99.90
33903;DHT22;20194;50.950;5.346;2024-01-15T03:44:13;2.70;99.90
33903;DHT22;20194;50.950;5.346;2024-01-15T03:46:39;2.60;99.90
33903;DHT22;20194;50.950;5.346;2024-01-15T03:49:04;2.60;99.90
33903;DHT22;20194;50.950;5.346;2024-01-15T03:51:30;2.50;99.90
33903;DHT22;20194;50.950;5.346;2024-01-15T03:53:56;2.60;99.90
33903;DHT22;20194;50.950;5.346;2024-01-15T03:56:21;2.60;99.90
33903;DHT22;20194;50.950;5.346;2024-01-15T03:58:47;2.60;99.90
33903;DHT22;20194;50.950;5.346;2024-01-15T04:01:13;2.60;99.90
33903;DHT22;20194;50.950;5.346;2024-01-15T04:03:39;2.70;99.90
33903;DHT22;20194;50.950;5.346;2024-01-15T04:06:05;2.70;99.90
33903;DHT22;20194;50.950;5.346;2024-01-15T04:08:31;2.70;99.90
33903;DHT22;20194;50.950;5.346;2024-01-15T04:10:56;2.70;99.90
33903;DHT22;20194;50.950;5.346;2024-01-15T04:13:23;2.90;99.90
33903;DHT22;20194;50.950;5.346;2024-01-15T04:15:48;2.90;99.90
33903;DHT22;20194;50.950;5.346;2024-01-15T04:18:16;2.70;99.90
33903;DHT22;20194;50.950;5.346;2024-01-15T04:20:42;2.60;99.90
33903;DHT22;20194;50.950;5.346;2024-01-15T04:23:08;2.70;99.90
33903;DHT22;20194;50.950;5.346;2024-01-15T04:25:34;2.80;99.90
33903;DHT22;20194;50.950;5.346;2024-01-15T04:28:00;2.70;99.90
33903;DHT22;20194;50.950;5.346;2024-01-15T04:30:25;2.80;99.90
33903;DHT22;20194;50.950;5.346;2024-01-15T04:32:51;2.70;99.90
33903;DHT22;20194;50.950;5.346;2024-01-15T04:35:17;2.60;99.90
33903;DHT22;20194;50.950;5.346;2024-01-15T04:37:43;2.50;99.90
33903;DHT22;20194;50.950;5.346;2024-01-15T04:40:09;2.40;99.90
33903;DHT22;20194;50.950;5.346;2024-01-15T04:42:35;2.40;99.90
33903;DHT22;20194;50.950;5.346;2024-01-15T04:45:01;2.50;99.90
33903;DHT22;20194;50.950;5.346;2024-01-15T04:47:26;2.50;99.90
33903;DHT22;20194;50.950;5.346;2024-01-15T04:49:52;2.40;99.90
33903;DHT22;20194;50.950;5.346;2024-01-15T04:52:18;2.40;99.90
33903;DHT22;20194;50.950;5.346;2024-01-15T04:54:44;2.20;99.90
33903;DHT22;20194;50.950;5.346;2024-01-15T04:57:10;2.30;99.90
33903;DHT22;20194;50.950;5.346;2024-01-15T04:59:36;2.30;99.90
33903;DHT22;20194;50.950;5.346;2024-01-15T05:02:01;2.40;99.90
33903;DHT22;20194;50.950;5.346;2024-01-15T05:04:27;2.40;99.90
33903;DHT22;20194;50.950;5.346;2024-01-15T05:06:53;2.40;99.90
33903;DHT22;20194;50.950;5.346;2024-01-15T05:09:19;2.50;99.90
33903;DHT22;20194;50.950;5.346;2024-01-15T05:11:45;2.40;99.90
33903;DHT22;20194;50.950;5.346;2024-01-15T05:14:10;2.30;99.90
33903;DHT22;20194;50.950;5.346;2024-01-15T05:16:39;2.30;99.90
33903;DHT22;20194;50.950;5.346;2024-01-15T05:19:07;2.30;99.90
33903;DHT22;20194;50.950;5.346;2024-01-15T05:21:33;2.40;99.90
33903;DHT22;20194;50.950;5.346;2024-01-15T05:23:59;2.30;99.90
33903;DHT22;20194;50.950;5.346;2024-01-15T05:26:24;2.30;99.90
33903;DHT22;20194;50.950;5.346;2024-01-15T05:28:50;2.20;99.90
33903;DHT22;20194;50.950;5.346;2024-01-15T05:31:16;2.20;99.90
33903;DHT22;20194;50.950;5.346;2024-01-15T05:33:42;2.30;99.90
33903;DHT22;20194;50.950;5.346;2024-01-15T05:36:08;2.30;99.90
33903;DHT22;20194;50.950;5.346;2024-01-15T05:38:33;2.30;99.90
33903;DHT22;20194;50.950;5.346;2024-01-15T05:40:59;2.20;99.90
33903;DHT22;20194;50.950;5.346;2024-01-15T05:43:25;2.20;99.90
33903;DHT22;20194;50.950;5.346;2024-01-15T05:45:50;2.20;99.90
33903;DHT22;20194;50.950;5.346;2024-01-15T05:48:16;2.20;99.90
33903;DHT22;20194;50.950;5.346;2024-01-15T05:50:42;2.20;99.90
33903;DHT22;20194;50.950;5.346;2024-01-15T05:53:07;2.30;99.90
33903;DHT22;20194;50.950;5.346;2024-01-15T05:55:34;2.30;99.90
33903;DHT22;20194;50.950;5.346;2024-01-15T05:58:00;2.20;99.90
33903;DHT22;20194;50.950;5.346;2024-01-15T06:00:26;2.20;99.90
33903;DHT22;20194;50.950;5.346;2024-01-15T06:02:52;2.20;99.90
33903;DHT22;20194;50.950;5.346;2024-01-15T06:05:21;2.10;99.90
33903;DHT22;20194;50.950;5.346;2024-01-15T06:07:46;2.10;99.90
33903;DHT22;20194;50.950;5.346;2024-01-15T06:10:12;2.00;99.90
33903;DHT22;20194;50.950;5.346;2024-01-15T06:12:38;2.10;99.90
33903;DHT22;20194;50.950;5.346;2024-01-15T06:15:04;2.00;99.90
33903;DHT22;20194;50.950;5.346;2024-01-15T06:17:30;2.00;99.90
33903;DHT22;20194;50.950;5.346;2024-01-15T06:19:56;1.90;99.90
33903;DHT22;20194;50.950;5.346;2024-01-15T06:22:23;2.00;99.90
33903;DHT22;20194;50.950;5.346;2024-01-15T06:24:48;1.90;99.90
33903;DHT22;20194;50.950;5.346;2024-01-15T06:27:14;1.90;99.90
33903;DHT22;20194;50.950;5.346;2024-01-15T06:29:45;2.00;99.90
33903;DHT22;20194;50.950;5.346;2024-01-15T06:32:11;1.90;99.90
33903;DHT22;20194;50.950;5.346;2024-01-15T06:34:37;1.90;99.90
33903;DHT22;20194;50.950;5.346;2024-01-15T06:37:02;1.90;99.90
33903;DHT22;20194;50.950;5.346;2024-01-15T06:39:28;1.90;99.90
33903;DHT22;20194;50.950;5.346;2024-01-15T06:41:54;1.90;99.90
33903;DHT22;20194;50.950;5.346;2024-01-15T06:44:20;1.90;99.90
33903;DHT22;20194;50.950;5.346;2024-01-15T06:46:47;1.90;99.90
33903;DHT22;20194;50.950;5.346;2024-01-15T06:49:13;2.00;99.90
33903;DHT22;20194;50.950;5.346;2024-01-15T06:51:39;1.80;99.90
33903;DHT22;20194;50.950;5.346;2024-01-15T06:54:06;1.80;99.90
33903;DHT22;20194;50.950;5.346;2024-01-15T06:56:32;1.80;99.90
33903;DHT22;20194;50.950;5.346;2024-01-15T06:58:57;1.80;99.90
33903;DHT22;20194;50.950;5.346;2024-01-15T07:01:23;1.90;99.90
33903;DHT22;20194;50.950;5.346;2024-01-15T07:03:49;1.90;99.90
33903;DHT22;20194;50.950;5.346;2024-01-15T07:06:15;1.90;99.90
33903;DHT22;20194;50.950;5.346;2024-01-15T07:08:42;1.90;99.90
33903;DHT22;20194;50.950;5.346;2024-01-15T07:11:08;1.90;99.90
33903;DHT22;20194;50.950;5.346;2024-01-15T07:13:35;2.00;99.90
33903;DHT22;20194;50.950;5.346;2024-01-15T07:16:01;1.90;99.90
33903;DHT22;20194;50.950;5.346;2024-01-15T07:18:27;2.00;99.90
33903;DHT22;20194;50.950;5.346;2024-01-15T07:20:53;2.10;99.90
33903;DHT22;20194;50.950;5.346;2024-01-15T07:23:19;2.10;99.90
33903;DHT22;20194;50.950;5.346;2024-01-15T07:25:44;2.10;99.90
33903;DHT22;20194;50.950;5.346;2024-01-15T07:28:10;2.00;99.90
33903;DHT22;20194;50.950;5.346;2024-01-15T07:30:36;2.00;99.90
33903;DHT22;20194;50.950;5.346;2024-01-15T07:33:04;2.00;99.90
33903;DHT22;20194;50.950;5.346;2024-01-15T07:35:30;2.10;99.90
33903;DHT22;20194;50.950;5.346;2024-01-15T07:37:56;2.20;99.90
33903;DHT22;20194;50.950;5.346;2024-01-15T07:40:21;2.20;99.90
33903;DHT22;20194;50.950;5.346;2024-01-15T07:42:47;2.10;99.90
33903;DHT22;20194;50.950;5.346;2024-01-15T07:45:13;2.10;99.90
33903;DHT22;20194;50.950;5.346;2024-01-15T07:47:38;2.20;99.90
33903;DHT22;20194;50.950;5.346;2024-01-15T07:50:05;2.30;99.90
33903;DHT22;20194;50.950;5.346;2024-01-15T07:52:31;2.30;99.90
33903;DHT22;20194;50.950;5.346;2024-01-15T07:54:57;2.40;99.90
33903;DHT22;20194;50.950;5.346;2024-01-15T07:57:25;2.50;99.90
33903;DHT22;20194;50.950;5.346;2024-01-15T07:59:50;2.50;99.90
33903;DHT22;20194;50.950;5.346;2024-01-15T08:02:17;2.50;99.90
33903;DHT22;20194;50.950;5.346;2024-01-15T08:04:43;2.40;99.90
33903;DHT22;20194;50.950;5.346;2024-01-15T08:07:09;2.50;99.90
33903;DHT22;20194;50.950;5.346;2024-01-15T08:09:35;2.40;99.90
33903;DHT22;20194;50.950;5.346;2024-01-15T08:12:01;2.40;99.90
33903;DHT22;20194;50.950;5.346;2024-01-15T08:14:27;2.40;99.90
33903;DHT22;20194;50.950;5.346;2024-01-15T08:16:53;2.40;99.90
33903;DHT22;20194;50.950;5.346;2024-01-15T08:19:19;2.50;99.90
33903;DHT22;20194;50.950;5.346;2024-01-15T08:21:45;2.50;99.90
33903;DHT22;20194;50.950;5.346;2024-01-15T08:24:11;2.60;99.90
33903;DHT22;20194;50.950;5.346;2024-01-15T08:26:37;2.70;99.90
33903;DHT22;20194;50.950;5.346;2024-01-15T08:29:03;2.60;99.90
33903;DHT22;20194;50.950;5.346;2024-01-15T08:31:28;2.60;99.90
33903;DHT22;20194;50.950;5.346;2024-01-15T08:33:54;2.50;99.90
33903;DHT22;20194;50.950;5.346;2024-01-15T08:36:21;2.50;99.90
33903;DHT22;20194;50.950;5.346;2024-01-15T08:38:47;2.40;99.90
33903;DHT22;20194;50.950;5.346;2024-01-15T08:41:13;2.40;99.90
33903;DHT22;20194;50.950;5.346;2024-01-15T08:43:39;2.50;99.90
33903;DHT22;20194;50.950;5.346;2024-01-15T08:46:05;2.40;99.90
33903;DHT22;20194;50.950;5.346;2024-01-15T08:48:31;2.50;99.90
33903;DHT22;20194;50.950;5.346;2024-01-15T08:50:56;2.50;99.90
33903;DHT22;20194;50.950;5.346;2024-01-15T08:53:23;2.40;99.90
33903;DHT22;20194;50.950;5.346;2024-01-15T08:55:49;2.30;99.90
33903;DHT22;20194;50.950;5.346;2024-01-15T08:58:15;2.20;99.90
33903;DHT22;20194;50.950;5.346;2024-01-15T09:00:41;2.30;99.90
33903;DHT22;20194;50.950;5.346;2024-01-15T09:03:06;2.30;99.90
33903;DHT22;20194;50.950;5.346;2024-01-15T09:05:33;2.30;99.90
33903;DHT22;20194;50.950;5.346;2024-01-15T09:07:59;2.30;99.90
33903;DHT22;20194;50.950;5.346;2024-01-15T09:10:25;2.20;99.90
33903;DHT22;20194;50.950;5.346;2024-01-15T09:12:51;2.30;99.90
33903;DHT22;20194;50.950;5.346;2024-01-15T09:15:17;2.30;99.90
33903;DHT22;20194;50.950;5.346;2024-01-15T09:17:43;2.20;99.90
33903;DHT22;20194;50.950;5.346;2024-01-15T09:20:10;2.20;99.90
33903;DHT22;20194;50.950;5.346;2024-01-15T09:22:38;2.20;99.90
33903;DHT22;20194;50.950;5.346;2024-01-15T09:25:06;2.30;99.90
33903;DHT22;20194;50.950;5.346;2024-01-15T09:27:31;2.30;99.90
33903;DHT22;20194;50.950;5.346;2024-01-15T09:29:58;2.40;99.90
33903;DHT22;20194;50.950;5.346;2024-01-15T09:32:24;2.40;99.90
33903;DHT22;20194;50.950;5.346;2024-01-15T09:34:50;2.40;99.90
33903;DHT22;20194;50.950;5.346;2024-01-15T09:37:16;2.40;99.90
33903;DHT22;20194;50.950;5.346;2024-01-15T09:39:41;2.30;99.90
33903;DHT22;20194;50.950;5.346;2024-01-15T09:42:08;2.40;99.90
33903;DHT22;20194;50.950;5.346;2024-01-15T09:44:34;2.50;99.90
33903;DHT22;20194;50.950;5.346;2024-01-15T09:47:01;2.40;99.90
33903;DHT22;20194;50.950;5.346;2024-01-15T09:49:27;2.40;99.90
33903;DHT22;20194;50.950;5.346;2024-01-15T09:51:54;2.50;99.90
33903;DHT22;20194;50.950;5.346;2024-01-15T09:54:20;2.40;99.90
33903;DHT22;20194;50.950;5.346;2024-01-15T09:56:47;2.50;99.90
33903;DHT22;20194;50.950;5.346;2024-01-15T09:59:19;2.60;99.90
33903;DHT22;20194;50.950;5.346;2024-01-15T10:01:48;2.70;99.90
33903;DHT22;20194;50.950;5.346;2024-01-15T10:04:15;2.70;99.90
33903;DHT22;20194;50.950;5.346;2024-01-15T10:06:45;2.70;99.90
33903;DHT22;20194;50.950;5.346;2024-01-15T10:09:14;2.80;99.90
33903;DHT22;20194;50.950;5.346;2024-01-15T10:11:44;2.80;99.90
33903;DHT22;20194;50.950;5.346;2024-01-15T10:14:13;2.90;99.40
33903;DHT22;20194;50.950;5.346;2024-01-15T10:16:42;2.90;98.80
33903;DHT22;20194;50.950;5.346;2024-01-15T10:19:08;2.90;99.20
33903;DHT22;20194;50.950;5.346;2024-01-15T10:21:35;2.90;98.50
33903;DHT22;20194;50.950;5.346;2024-01-15T10:24:02;3.00;98.70
33903;DHT22;20194;50.950;5.346;2024-01-15T10:26:29;3.10;98.20
33903;DHT22;20194;50.950;5.346;2024-01-15T10:28:55;3.10;97.70
33903;DHT22;20194;50.950;5.346;2024-01-15T10:31:20;3.20;97.40
33903;DHT22;20194;50.950;5.346;2024-01-15T10:33:48;3.20;97.20
33903;DHT22;20194;50.950;5.346;2024-01-15T10:36:16;3.20;96.80
33903;DHT22;20194;50.950;5.346;2024-01-15T10:38:46;3.40;96.70
33903;DHT22;20194;50.950;5.346;2024-01-15T10:41:13;3.40;96.00
33903;DHT22;20194;50.950;5.346;2024-01-15T10:43:39;3.40;95.70
33903;DHT22;20194;50.950;5.346;2024-01-15T10:46:07;3.30;95.10
33903;DHT22;20194;50.950;5.346;2024-01-15T10:48:33;3.50;95.80
33903;DHT22;20194;50.950;5.346;2024-01-15T10:51:02;3.70;95.90
33903;DHT22;20194;50.950;5.346;2024-01-15T10:53:38;4.10;93.80
33903;DHT22;20194;50.950;5.346;2024-01-15T10:56:05;4.10;92.70
33903;DHT22;20194;50.950;5.346;2024-01-15T10:58:34;4.20;92.80
33903;DHT22;20194;50.950;5.346;2024-01-15T11:01:01;4.20;90.90
33903;DHT22;20194;50.950;5.346;2024-01-15T11:03:27;4.40;91.40
33903;DHT22;20194;50.950;5.346;2024-01-15T11:05:53;4.50;91.30
33903;DHT22;20194;50.950;5.346;2024-01-15T11:08:20;4.40;90.00
33903;DHT22;20194;50.950;5.346;2024-01-15T11:10:52;4.70;90.00
33903;DHT22;20194;50.950;5.346;2024-01-15T11:16:02;4.90;88.30
33903;DHT22;20194;50.950;5.346;2024-01-15T11:23:58;4.50;84.60
33903;DHT22;20194;50.950;5.346;2024-01-15T11:28:54;4.30;89.60
33903;DHT22;20194;50.950;5.346;2024-01-15T11:31:19;4.30;89.50
33903;DHT22;20194;50.950;5.346;2024-01-15T11:33:49;4.20;90.20
33903;DHT22;20194;50.950;5.346;2024-01-15T11:36:15;4.30;90.00
33903;DHT22;20194;50.950;5.346;2024-01-15T11:38:41;4.20;91.20
33903;DHT22;20194;50.950;5.346;2024-01-15T11:41:16;4.10;92.00
33903;DHT22;20194;50.950;5.346;2024-01-15T11:43:41;4.10;93.60
33903;DHT22;20194;50.950;5.346;2024-01-15T11:46:11;3.80;95.20
33903;DHT22;20194;50.950;5.346;2024-01-15T11:48:44;3.50;97.10
33903;DHT22;20194;50.950;5.346;2024-01-15T11:51:13;3.40;97.60
33903;DHT22;20194;50.950;5.346;2024-01-15T11:53:44;3.20;98.20
33903;DHT22;20194;50.950;5.346;2024-01-15T11:56:14;3.20;99.00
33903;DHT22;20194;50.950;5.346;2024-01-15T11:58:42;2.80;99.80
33903;DHT22;20194;50.950;5.346;2024-01-15T12:01:10;2.90;99.90
33903;DHT22;20194;50.950;5.346;2024-01-15T12:03:36;2.80;99.90
33903;DHT22;20194;50.950;5.346;2024-01-15T12:06:02;2.80;99.90
33903;DHT22;20194;50.950;5.346;2024-01-15T12:08:30;3.00;99.90
33903;DHT22;20194;50.950;5.346;2024-01-15T12:10:56;2.80;99.90
33903;DHT22;20194;50.950;5.346;2024-01-15T12:13:22;2.80;99.90
33903;DHT22;20194;50.950;5.346;2024-01-15T12:15:49;3.10;99.90
33903;DHT22;20194;50.950;5.346;2024-01-15T12:18:18;3.20;99.90
33903;DHT22;20194;50.950;5.346;2024-01-15T12:20:45;3.20;99.90
33903;DHT22;20194;50.950;5.346;2024-01-15T12:23:13;3.10;99.90
33903;DHT22;20194;50.950;5.346;2024-01-15T12:25:39;3.10;99.90
33903;DHT22;20194;50.950;5.346;2024-01-15T12:28:05;3.10;99.90
33903;DHT22;20194;50.950;5.346;2024-01-15T12:30:33;2.90;99.90
33903;DHT22;20194;50.950;5.346;2024-01-15T12:33:02;2.60;99.90
33903;DHT22;20194;50.950;5.346;2024-01-15T12:35:29;2.50;99.90
33903;DHT22;20194;50.950;5.346;2024-01-15T12:37:55;2.60;99.90
33903;DHT22;20194;50.950;5.346;2024-01-15T12:40:23;2.60;99.90
33903;DHT22;20194;50.950;5.346;2024-01-15T12:42:49;2.60;99.90
33903;DHT22;20194;50.950;5.346;2024-01-15T12:45:14;2.50;99.90
33903;DHT22;20194;50.950;5.346;2024-01-15T12:47:41;2.40;99.90
33903;DHT22;20194;50.950;5.346;2024-01-15T12:50:11;2.60;99.90
33903;DHT22;20194;50.950;5.346;2024-01-15T12:52:40;2.70;99.90
33903;DHT22;20194;50.950;5.346;2024-01-15T12:55:07;2.70;99.90
33903;DHT22;20194;50.950;5.346;2024-01-15T12:57:34;2.70;99.90
33903;DHT22;20194;50.950;5.346;2024-01-15T13:00:01;2.80;99.90
33903;DHT22;20194;50.950;5.346;2024-01-15T13:02:27;2.80;99.90
33903;DHT22;20194;50.950;5.346;2024-01-15T13:04:53;2.80;99.90
33903;DHT22;20194;50.950;5.346;2024-01-15T13:07:19;2.70;99.90
33903;DHT22;20194;50.950;5.346;2024-01-15T13:09:45;2.70;99.90
33903;DHT22;20194;50.950;5.346;2024-01-15T13:12:11;2.90;99.90
33903;DHT22;20194;50.950;5.346;2024-01-15T13:14:37;3.00;99.90
33903;DHT22;20194;50.950;5.346;2024-01-15T13:17:03;3.00;99.90
33903;DHT22;20194;50.950;5.346;2024-01-15T13:19:29;3.00;99.90
33903;DHT22;20194;50.950;5.346;2024-01-15T13:21:55;2.90;99.90
33903;DHT22;20194;50.950;5.346;2024-01-15T13:24:23;2.80;99.90
33903;DHT22;20194;50.950;5.346;2024-01-15T13:26:49;2.70;99.90
33903;DHT22;20194;50.950;5.346;2024-01-15T13:29:14;2.60;99.90
33903;DHT22;20194;50.950;5.346;2024-01-15T13:31:40;2.60;99.90
33903;DHT22;20194;50.950;5.346;2024-01-15T13:34:06;2.60;99.90
33903;DHT22;20194;50.950;5.346;2024-01-15T13:36:32;2.40;99.90
33903;DHT22;20194;50.950;5.346;2024-01-15T13:38:58;2.60;99.90
33903;DHT22;20194;50.950;5.346;2024-01-15T13:41:24;2.70;99.90
33903;DHT22;20194;50.950;5.346;2024-01-15T13:43:54;2.70;99.90
33903;DHT22;20194;50.950;5.346;2024-01-15T13:46:22;2.70;99.90
33903;DHT22;20194;50.950;5.346;2024-01-15T13:48:48;2.70;99.90
33903;DHT22;20194;50.950;5.346;2024-01-15T13:51:14;2.60;99.90
33903;DHT22;20194;50.950;5.346;2024-01-15T13:53:40;2.60;99.90
33903;DHT22;20194;50.950;5.346;2024-01-15T13:56:06;2.70;99.90
33903;DHT22;20194;50.950;5.346;2024-01-15T13:58:33;2.80;99.90
33903;DHT22;20194;50.950;5.346;2024-01-15T14:01:00;2.80;99.90
33903;DHT22;20194;50.950;5.346;2024-01-15T14:03:27;3.00;99.90
33903;DHT22;20194;50.950;5.346;2024-01-15T14:05:52;3.00;99.90
33903;DHT22;20194;50.950;5.346;2024-01-15T14:08:18;2.90;99.90
33903;DHT22;20194;50.950;5.346;2024-01-15T14:10:46;2.80;99.90
33903;DHT22;20194;50.950;5.346;2024-01-15T14:13:12;2.70;99.90
33903;DHT22;20194;50.950;5.346;2024-01-15T14:15:38;2.70;99.90
33903;DHT22;20194;50.950;5.346;2024-01-15T14:18:04;2.70;99.90
33903;DHT22;20194;50.950;5.346;2024-01-15T14:20:30;2.70;99.90
33903;DHT22;20194;50.950;5.346;2024-01-15T14:22:56;2.80;99.90
33903;DHT22;20194;50.950;5.346;2024-01-15T14:25:22;2.70;99.90
33903;DHT22;20194;50.950;5.346;2024-01-15T14:27:48;2.80;99.90
33903;DHT22;20194;50.950;5.346;2024-01-15T14:30:14;2.90;99.90
33903;DHT22;20194;50.950;5.346;2024-01-15T14:32:44;2.80;99.90
33903;DHT22;20194;50.950;5.346;2024-01-15T14:35:10;2.70;99.90
33903;DHT22;20194;50.950;5.346;2024-01-15T14:37:39;2.70;99.90
33903;DHT22;20194;50.950;5.346;2024-01-15T14:40:06;2.50;99.90
33903;DHT22;20194;50.950;5.346;2024-01-15T14:42:38;2.50;99.90
33903;DHT22;20194;50.950;5.346;2024-01-15T14:45:04;2.60;99.90
33903;DHT22;20194;50.950;5.346;2024-01-15T14:47:37;2.50;99.90
33903;DHT22;20194;50.950;5.346;2024-01-15T14:50:03;2.40;99.90
33903;DHT22;20194;50.950;5.346;2024-01-15T14:52:30;2.40;99.90
33903;DHT22;20194;50.950;5.346;2024-01-15T14:54:56;2.20;99.90
33903;DHT22;20194;50.950;5.346;2024-01-15T14:57:21;2.20;99.90
33903;DHT22;20194;50.950;5.346;2024-01-15T14:59:47;2.20;99.90
33903;DHT22;20194;50.950;5.346;2024-01-15T15:02:13;2.30;99.90
33903;DHT22;20194;50.950;5.346;2024-01-15T15:04:40;2.40;99.90
33903;DHT22;20194;50.950;5.346;2024-01-15T15:07:07;2.40;99.90
33903;DHT22;20194;50.950;5.346;2024-01-15T15:09:33;2.40;99.90
33903;DHT22;20194;50.950;5.346;2024-01-15T15:11:58;2.50;99.90
33903;DHT22;20194;50.950;5.346;2024-01-15T15:14:24;2.50;99.90
33903;DHT22;20194;50.950;5.346;2024-01-15T15:16:50;2.60;99.90
33903;DHT22;20194;50.950;5.346;2024-01-15T15:19:16;2.70;99.90
33903;DHT22;20194;50.950;5.346;2024-01-15T15:21:43;2.70;99.90
33903;DHT22;20194;50.950;5.346;2024-01-15T15:24:09;2.60;99.90
33903;DHT22;20194;50.950;5.346;2024-01-15T15:26:34;2.70;99.90
33903;DHT22;20194;50.950;5.346;2024-01-15T15:29:02;2.70;99.90
33903;DHT22;20194;50.950;5.346;2024-01-15T15:31:27;2.60;99.90
33903;DHT22;20194;50.950;5.346;2024-01-15T15:33:54;2.50;99.90
33903;DHT22;20194;50.950;5.346;2024-01-15T15:36:19;2.60;99.90
33903;DHT22;20194;50.950;5.346;2024-01-15T15:38:45;2.40;99.90
33903;DHT22;20194;50.950;5.346;2024-01-15T15:41:10;2.40;99.90
33903;DHT22;20194;50.950;5.346;2024-01-15T15:43:36;2.30;99.90
33903;DHT22;20194;50.950;5.346;2024-01-15T15:46:02;2.20;99.90
33903;DHT22;20194;50.950;5.346;2024-01-15T15:48:28;2.20;99.90